Akaska, South Dakota
Current Conditions -  °F | °C
As of 6:52 AM on Wednesday 26 Nov 2014 (Local Time) from KMBG Reporting Station
Overcast Overcast  
Wind Chill:   Ceiling: 2200
Heat Index: 16°   Visibility: 10mi
Dew Point: 10°   Wind: 13mph
Humidity: 77%   Direction: 360°N
Pressure: 30.24"   Gusts: NA
Location:  45.33°N, 100.12°W
Report Text: KMBG 261252Z AUTO 36011KT 10SM OVC022 M09/M12 A3024 RMK AO2 SLP267 T10891122
Loading
Personal Weather Stations






























Interactive Weather Map New forecast layout! Learn more

10-Day Weather Forecast

Advertisements
Track Severe Weather on mobile